sensor_id;sensor_type;location;lat;lon;timestamp;P1;durP1;ratioP1;P2;durP2;ratioP2
3347;SDS011;1687;49.540;8.574;2023-06-14T00:00:19;12.70;;;6.23;;
3347;SDS011;1687;49.540;8.574;2023-06-14T00:02:45;15.73;;;7.50;;
3347;SDS011;1687;49.540;8.574;2023-06-14T00:05:11;16.63;;;6.53;;
3347;SDS011;1687;49.540;8.574;2023-06-14T00:07:38;12.60;;;6.73;;
3347;SDS011;1687;49.540;8.574;2023-06-14T00:10:09;10.37;;;5.37;;
3347;SDS011;1687;49.540;8.574;2023-06-14T00:12:37;14.33;;;6.30;;
3347;SDS011;1687;49.540;8.574;2023-06-14T00:15:04;11.60;;;7.40;;
3347;SDS011;1687;49.540;8.574;2023-06-14T00:17:30;25.10;;;6.30;;
3347;SDS011;1687;49.540;8.574;2023-06-14T00:19:57;12.13;;;6.00;;
3347;SDS011;1687;49.540;8.574;2023-06-14T00:22:24;9.90;;;6.43;;
3347;SDS011;1687;49.540;8.574;2023-06-14T00:24:50;23.83;;;6.27;;
3347;SDS011;1687;49.540;8.574;2023-06-14T00:27:16;13.03;;;7.00;;
3347;SDS011;1687;49.540;8.574;2023-06-14T00:29:42;10.97;;;6.87;;
3347;SDS011;1687;49.540;8.574;2023-06-14T00:32:08;11.13;;;6.53;;
3347;SDS011;1687;49.540;8.574;2023-06-14T00:34:34;13.10;;;7.60;;
3347;SDS011;1687;49.540;8.574;2023-06-14T00:37:00;11.50;;;6.43;;
3347;SDS011;1687;49.540;8.574;2023-06-14T00:39:26;9.93;;;6.30;;
3347;SDS011;1687;49.540;8.574;2023-06-14T00:41:52;8.47;;;5.93;;
3347;SDS011;1687;49.540;8.574;2023-06-14T00:44:18;9.97;;;6.03;;
3347;SDS011;1687;49.540;8.574;2023-06-14T00:46:45;12.70;;;6.37;;
3347;SDS011;1687;49.540;8.574;2023-06-14T00:49:11;9.80;;;6.30;;
3347;SDS011;1687;49.540;8.574;2023-06-14T00:51:40;11.43;;;6.87;;
3347;SDS011;1687;49.540;8.574;2023-06-14T00:54:07;13.40;;;6.97;;
3347;SDS011;1687;49.540;8.574;2023-06-14T00:56:33;8.90;;;6.47;;
3347;SDS011;1687;49.540;8.574;2023-06-14T00:59:01;12.90;;;7.43;;
3347;SDS011;1687;49.540;8.574;2023-06-14T01:01:28;16.03;;;6.17;;
3347;SDS011;1687;49.540;8.574;2023-06-14T01:03:57;9.20;;;6.67;;
3347;SDS011;1687;49.540;8.574;2023-06-14T01:09:27;11.53;;;6.97;;
3347;SDS011;1687;49.540;8.574;2023-06-14T01:12:24;10.23;;;6.80;;
3347;SDS011;1687;49.540;8.574;2023-06-14T01:15:00;8.47;;;5.73;;
3347;SDS011;1687;49.540;8.574;2023-06-14T01:17:27;11.83;;;6.00;;
3347;SDS011;1687;49.540;8.574;2023-06-14T01:19:58;9.07;;;6.07;;
3347;SDS011;1687;49.540;8.574;2023-06-14T01:22:26;10.70;;;6.40;;
3347;SDS011;1687;49.540;8.574;2023-06-14T01:24:52;13.17;;;6.70;;
3347;SDS011;1687;49.540;8.574;2023-06-14T01:27:20;17.80;;;7.23;;
3347;SDS011;1687;49.540;8.574;2023-06-14T01:29:50;12.50;;;7.40;;
3347;SDS011;1687;49.540;8.574;2023-06-14T01:32:17;11.20;;;6.40;;
3347;SDS011;1687;49.540;8.574;2023-06-14T01:34:43;9.37;;;6.30;;
3347;SDS011;1687;49.540;8.574;2023-06-14T01:37:10;10.27;;;5.70;;
3347;SDS011;1687;49.540;8.574;2023-06-14T01:39:38;10.40;;;6.70;;
3347;SDS011;1687;49.540;8.574;2023-06-14T01:42:04;11.40;;;6.90;;
3347;SDS011;1687;49.540;8.574;2023-06-14T01:44:31;11.60;;;6.40;;
3347;SDS011;1687;49.540;8.574;2023-06-14T01:46:57;11.13;;;6.73;;
3347;SDS011;1687;49.540;8.574;2023-06-14T01:49:24;15.73;;;6.07;;
3347;SDS011;1687;49.540;8.574;2023-06-14T01:51:50;9.80;;;5.97;;
3347;SDS011;1687;49.540;8.574;2023-06-14T01:54:16;11.20;;;6.87;;
3347;SDS011;1687;49.540;8.574;2023-06-14T01:56:42;11.40;;;6.90;;
3347;SDS011;1687;49.540;8.574;2023-06-14T01:59:07;11.30;;;6.37;;
3347;SDS011;1687;49.540;8.574;2023-06-14T02:01:33;16.00;;;6.60;;
3347;SDS011;1687;49.540;8.574;2023-06-14T02:03:59;8.00;;;5.40;;
3347;SDS011;1687;49.540;8.574;2023-06-14T02:06:26;17.57;;;6.50;;
3347;SDS011;1687;49.540;8.574;2023-06-14T02:08:52;17.27;;;6.00;;
3347;SDS011;1687;49.540;8.574;2023-06-14T02:11:18;10.20;;;6.80;;
3347;SDS011;1687;49.540;8.574;2023-06-14T02:13:43;13.37;;;6.27;;
3347;SDS011;1687;49.540;8.574;2023-06-14T02:16:10;12.23;;;6.40;;
3347;SDS011;1687;49.540;8.574;2023-06-14T02:18:36;12.20;;;6.47;;
3347;SDS011;1687;49.540;8.574;2023-06-14T02:21:01;12.50;;;6.43;;
3347;SDS011;1687;49.540;8.574;2023-06-14T02:23:27;10.03;;;5.90;;
3347;SDS011;1687;49.540;8.574;2023-06-14T02:25:53;12.30;;;6.30;;
3347;SDS011;1687;49.540;8.574;2023-06-14T02:28:18;10.50;;;5.90;;
3347;SDS011;1687;49.540;8.574;2023-06-14T02:30:44;9.53;;;5.63;;
3347;SDS011;1687;49.540;8.574;2023-06-14T02:33:10;10.53;;;6.43;;
3347;SDS011;1687;49.540;8.574;2023-06-14T02:35:37;8.87;;;5.57;;
3347;SDS011;1687;49.540;8.574;2023-06-14T02:38:03;10.30;;;5.93;;
3347;SDS011;1687;49.540;8.574;2023-06-14T02:40:29;11.97;;;6.40;;
3347;SDS011;1687;49.540;8.574;2023-06-14T02:42:55;15.20;;;6.33;;
3347;SDS011;1687;49.540;8.574;2023-06-14T02:45:20;10.33;;;5.70;;
3347;SDS011;1687;49.540;8.574;2023-06-14T02:47:46;9.80;;;6.70;;
3347;SDS011;1687;49.540;8.574;2023-06-14T02:50:12;14.17;;;7.30;;
3347;SDS011;1687;49.540;8.574;2023-06-14T02:52:37;13.70;;;7.70;;
3347;SDS011;1687;49.540;8.574;2023-06-14T02:55:03;10.53;;;5.83;;
3347;SDS011;1687;49.540;8.574;2023-06-14T02:57:31;9.77;;;6.20;;
3347;SDS011;1687;49.540;8.574;2023-06-14T02:59:56;11.00;;;5.70;;
3347;SDS011;1687;49.540;8.574;2023-06-14T03:02:22;10.57;;;6.10;;
3347;SDS011;1687;49.540;8.574;2023-06-14T03:04:48;31.33;;;6.80;;
3347;SDS011;1687;49.540;8.574;2023-06-14T03:07:13;13.50;;;6.43;;
3347;SDS011;1687;49.540;8.574;2023-06-14T03:09:44;10.20;;;6.47;;
3347;SDS011;1687;49.540;8.574;2023-06-14T03:12:10;13.73;;;6.07;;
3347;SDS011;1687;49.540;8.574;2023-06-14T03:14:36;9.33;;;6.63;;
3347;SDS011;1687;49.540;8.574;2023-06-14T03:17:02;12.37;;;6.60;;
3347;SDS011;1687;49.540;8.574;2023-06-14T03:19:29;16.07;;;9.40;;
3347;SDS011;1687;49.540;8.574;2023-06-14T03:21:55;13.40;;;8.27;;
3347;SDS011;1687;49.540;8.574;2023-06-14T03:24:24;13.00;;;7.70;;
3347;SDS011;1687;49.540;8.574;2023-06-14T03:26:52;18.07;;;9.00;;
3347;SDS011;1687;49.540;8.574;2023-06-14T03:29:18;13.27;;;8.37;;
3347;SDS011;1687;49.540;8.574;2023-06-14T03:32:00;16.63;;;8.03;;
3347;SDS011;1687;49.540;8.574;2023-06-14T03:34:27;17.13;;;8.07;;
3347;SDS011;1687;49.540;8.574;2023-06-14T03:36:53;13.33;;;8.40;;
3347;SDS011;1687;49.540;8.574;2023-06-14T03:39:19;15.37;;;8.97;;
3347;SDS011;1687;49.540;8.574;2023-06-14T03:41:45;13.70;;;7.90;;
3347;SDS011;1687;49.540;8.574;2023-06-14T03:44:14;15.20;;;8.40;;
3347;SDS011;1687;49.540;8.574;2023-06-14T03:46:42;14.43;;;8.50;;
3347;SDS011;1687;49.540;8.574;2023-06-14T03:49:08;14.47;;;8.70;;
3347;SDS011;1687;49.540;8.574;2023-06-14T03:51:34;22.17;;;9.30;;
3347;SDS011;1687;49.540;8.574;2023-06-14T03:54:00;17.23;;;10.30;;
3347;SDS011;1687;49.540;8.574;2023-06-14T03:56:26;15.90;;;8.83;;
3347;SDS011;1687;49.540;8.574;2023-06-14T03:58:52;14.97;;;8.80;;
3347;SDS011;1687;49.540;8.574;2023-06-14T04:01:18;23.73;;;8.23;;
3347;SDS011;1687;49.540;8.574;2023-06-14T04:03:43;27.10;;;8.50;;
3347;SDS011;1687;49.540;8.574;2023-06-14T04:06:09;15.77;;;10.30;;
3347;SDS011;1687;49.540;8.574;2023-06-14T04:08:35;16.20;;;9.40;;
3347;SDS011;1687;49.540;8.574;2023-06-14T04:11:01;13.13;;;7.90;;
3347;SDS011;1687;49.540;8.574;2023-06-14T04:13:26;20.03;;;11.50;;
3347;SDS011;1687;49.540;8.574;2023-06-14T04:15:52;14.07;;;7.70;;
3347;SDS011;1687;49.540;8.574;2023-06-14T04:18:18;12.60;;;7.83;;
3347;SDS011;1687;49.540;8.574;2023-06-14T04:20:45;14.53;;;8.40;;
3347;SDS011;1687;49.540;8.574;2023-06-14T04:23:12;15.97;;;8.57;;
3347;SDS011;1687;49.540;8.574;2023-06-14T04:25:43;16.40;;;9.40;;
3347;SDS011;1687;49.540;8.574;2023-06-14T04:28:12;15.77;;;8.43;;
3347;SDS011;1687;49.540;8.574;2023-06-14T04:30:42;16.30;;;8.07;;
3347;SDS011;1687;49.540;8.574;2023-06-14T04:33:08;15.47;;;8.00;;
3347;SDS011;1687;49.540;8.574;2023-06-14T04:35:35;15.97;;;9.23;;
3347;SDS011;1687;49.540;8.574;2023-06-14T04:38:02;14.10;;;7.57;;
3347;SDS011;1687;49.540;8.574;2023-06-14T04:40:35;18.13;;;8.93;;
3347;SDS011;1687;49.540;8.574;2023-06-14T04:43:07;28.93;;;9.80;;
3347;SDS011;1687;49.540;8.574;2023-06-14T04:45:37;14.40;;;8.90;;
3347;SDS011;1687;49.540;8.574;2023-06-14T04:48:04;16.03;;;8.57;;
3347;SDS011;1687;49.540;8.574;2023-06-14T04:50:31;21.67;;;9.10;;
3347;SDS011;1687;49.540;8.574;2023-06-14T04:52:57;13.40;;;8.57;;
3347;SDS011;1687;49.540;8.574;2023-06-14T04:55:24;13.93;;;8.20;;
3347;SDS011;1687;49.540;8.574;2023-06-14T04:57:51;18.57;;;7.37;;
3347;SDS011;1687;49.540;8.574;2023-06-14T05:00:18;8.23;;;5.63;;
3347;SDS011;1687;49.540;8.574;2023-06-14T05:02:45;10.20;;;6.23;;
3347;SDS011;1687;49.540;8.574;2023-06-14T05:05:12;23.30;;;7.90;;
3347;SDS011;1687;49.540;8.574;2023-06-14T05:07:37;13.97;;;7.33;;
3347;SDS011;1687;49.540;8.574;2023-06-14T05:10:03;12.33;;;7.37;;
3347;SDS011;1687;49.540;8.574;2023-06-14T05:12:30;10.30;;;6.30;;
3347;SDS011;1687;49.540;8.574;2023-06-14T05:14:56;15.90;;;7.13;;
3347;SDS011;1687;49.540;8.574;2023-06-14T05:17:23;16.50;;;6.90;;
3347;SDS011;1687;49.540;8.574;2023-06-14T05:19:49;10.93;;;7.33;;
3347;SDS011;1687;49.540;8.574;2023-06-14T05:22:15;9.37;;;6.80;;
3347;SDS011;1687;49.540;8.574;2023-06-14T05:24:41;9.37;;;6.77;;
3347;SDS011;1687;49.540;8.574;2023-06-14T05:27:07;13.47;;;5.93;;
3347;SDS011;1687;49.540;8.574;2023-06-14T05:29:33;37.30;;;7.23;;
3347;SDS011;1687;49.540;8.574;2023-06-14T05:31:58;13.97;;;6.30;;
3347;SDS011;1687;49.540;8.574;2023-06-14T05:34:24;11.20;;;6.63;;
3347;SDS011;1687;49.540;8.574;2023-06-14T05:36:50;12.43;;;6.57;;
3347;SDS011;1687;49.540;8.574;2023-06-14T05:39:16;21.63;;;6.63;;
3347;SDS011;1687;49.540;8.574;2023-06-14T05:41:42;11.80;;;6.13;;
3347;SDS011;1687;49.540;8.574;2023-06-14T05:44:07;11.00;;;6.53;;
3347;SDS011;1687;49.540;8.574;2023-06-14T05:46:34;19.60;;;5.87;;
3347;SDS011;1687;49.540;8.574;2023-06-14T05:49:00;11.90;;;6.20;;
3347;SDS011;1687;49.540;8.574;2023-06-14T05:51:25;13.17;;;7.27;;
3347;SDS011;1687;49.540;8.574;2023-06-14T05:53:51;14.70;;;6.17;;
3347;SDS011;1687;49.540;8.574;2023-06-14T05:56:17;11.23;;;7.00;;
3347;SDS011;1687;49.540;8.574;2023-06-14T05:58:43;12.80;;;6.03;;
3347;SDS011;1687;49.540;8.574;2023-06-14T06:01:13;11.67;;;6.43;;
3347;SDS011;1687;49.540;8.574;2023-06-14T06:03:39;12.90;;;6.20;;
3347;SDS011;1687;49.540;8.574;2023-06-14T06:06:05;13.53;;;6.83;;
3347;SDS011;1687;49.540;8.574;2023-06-14T06:08:31;12.10;;;6.53;;
3347;SDS011;1687;49.540;8.574;2023-06-14T06:10:58;17.00;;;6.97;;
3347;SDS011;1687;49.540;8.574;2023-06-14T06:13:25;12.47;;;6.20;;
3347;SDS011;1687;49.540;8.574;2023-06-14T06:15:50;12.40;;;6.40;;
3347;SDS011;1687;49.540;8.574;2023-06-14T06:18:16;9.90;;;6.53;;
3347;SDS011;1687;49.540;8.574;2023-06-14T06:20:42;8.90;;;5.47;;
3347;SDS011;1687;49.540;8.574;2023-06-14T06:23:09;12.53;;;7.17;;
3347;SDS011;1687;49.540;8.574;2023-06-14T06:25:34;9.83;;;5.60;;
3347;SDS011;1687;49.540;8.574;2023-06-14T06:28:00;12.30;;;5.67;;
3347;SDS011;1687;49.540;8.574;2023-06-14T06:30:26;14.70;;;7.00;;
3347;SDS011;1687;49.540;8.574;2023-06-14T06:32:52;11.03;;;5.77;;
3347;SDS011;1687;49.540;8.574;2023-06-14T06:35:18;8.70;;;5.73;;
3347;SDS011;1687;49.540;8.574;2023-06-14T06:37:43;9.60;;;5.90;;
3347;SDS011;1687;49.540;8.574;2023-06-14T06:40:09;8.07;;;5.50;;
3347;SDS011;1687;49.540;8.574;2023-06-14T06:42:35;7.83;;;5.13;;
3347;SDS011;1687;49.540;8.574;2023-06-14T06:45:01;12.13;;;7.03;;
3347;SDS011;1687;49.540;8.574;2023-06-14T06:47:28;6.83;;;5.07;;
3347;SDS011;1687;49.540;8.574;2023-06-14T06:49:53;8.47;;;6.00;;
3347;SDS011;1687;49.540;8.574;2023-06-14T06:52:19;9.57;;;6.30;;
3347;SDS011;1687;49.540;8.574;2023-06-14T06:54:45;8.20;;;4.90;;
3347;SDS011;1687;49.540;8.574;2023-06-14T06:57:10;10.70;;;5.90;;
3347;SDS011;1687;49.540;8.574;2023-06-14T06:59:36;8.87;;;7.17;;
3347;SDS011;1687;49.540;8.574;2023-06-14T07:02:02;8.67;;;6.03;;
3347;SDS011;1687;49.540;8.574;2023-06-14T07:04:29;21.63;;;6.20;;
3347;SDS011;1687;49.540;8.574;2023-06-14T07:06:54;18.50;;;5.97;;
3347;SDS011;1687;49.540;8.574;2023-06-14T07:09:20;12.80;;;6.67;;
3347;SDS011;1687;49.540;8.574;2023-06-14T07:11:46;10.40;;;5.90;;
3347;SDS011;1687;49.540;8.574;2023-06-14T07:14:12;11.53;;;6.00;;
3347;SDS011;1687;49.540;8.574;2023-06-14T07:16:38;20.43;;;6.40;;
3347;SDS011;1687;49.540;8.574;2023-06-14T07:19:04;8.80;;;4.93;;
3347;SDS011;1687;49.540;8.574;2023-06-14T07:21:30;8.40;;;5.60;;
3347;SDS011;1687;49.540;8.574;2023-06-14T07:23:56;12.00;;;5.30;;
3347;SDS011;1687;49.540;8.574;2023-06-14T07:26:22;8.90;;;5.53;;
3347;SDS011;1687;49.540;8.574;2023-06-14T07:28:48;10.37;;;5.33;;
3347;SDS011;1687;49.540;8.574;2023-06-14T07:31:17;8.67;;;5.10;;
3347;SDS011;1687;49.540;8.574;2023-06-14T07:33:44;17.83;;;5.50;;
3347;SDS011;1687;49.540;8.574;2023-06-14T07:36:10;10.93;;;4.90;;
3347;SDS011;1687;49.540;8.574;2023-06-14T07:38:36;16.70;;;5.80;;
3347;SDS011;1687;49.540;8.574;2023-06-14T07:41:01;9.27;;;5.27;;
3347;SDS011;1687;49.540;8.574;2023-06-14T07:43:27;12.43;;;4.83;;
3347;SDS011;1687;49.540;8.574;2023-06-14T07:45:53;15.30;;;5.40;;
3347;SDS011;1687;49.540;8.574;2023-06-14T07:48:19;10.73;;;4.50;;
3347;SDS011;1687;49.540;8.574;2023-06-14T07:50:44;7.90;;;4.63;;
3347;SDS011;1687;49.540;8.574;2023-06-14T07:53:10;9.10;;;6.53;;
3347;SDS011;1687;49.540;8.574;2023-06-14T07:55:36;8.80;;;4.80;;
3347;SDS011;1687;49.540;8.574;2023-06-14T07:58:08;28.63;;;5.30;;
3347;SDS011;1687;49.540;8.574;2023-06-14T08:00:34;6.73;;;4.93;;
3347;SDS011;1687;49.540;8.574;2023-06-14T08:03:00;10.63;;;5.77;;
3347;SDS011;1687;49.540;8.574;2023-06-14T08:05:26;9.93;;;4.90;;
3347;SDS011;1687;49.540;8.574;2023-06-14T08:07:52;9.00;;;4.60;;
3347;SDS011;1687;49.540;8.574;2023-06-14T08:10:19;7.20;;;5.03;;
3347;SDS011;1687;49.540;8.574;2023-06-14T08:12:45;8.93;;;4.80;;
3347;SDS011;1687;49.540;8.574;2023-06-14T08:15:10;7.43;;;4.37;;
3347;SDS011;1687;49.540;8.574;2023-06-14T08:17:36;7.53;;;5.10;;
3347;SDS011;1687;49.540;8.574;2023-06-14T08:20:02;10.07;;;5.20;;
3347;SDS011;1687;49.540;8.574;2023-06-14T08:22:31;8.50;;;5.13;;
3347;SDS011;1687;49.540;8.574;2023-06-14T08:25:01;6.80;;;4.97;;
3347;SDS011;1687;49.540;8.574;2023-06-14T08:27:27;8.67;;;5.30;;
3347;SDS011;1687;49.540;8.574;2023-06-14T08:29:52;13.20;;;5.47;;
3347;SDS011;1687;49.540;8.574;2023-06-14T08:32:18;10.90;;;5.10;;
3347;SDS011;1687;49.540;8.574;2023-06-14T08:34:44;9.60;;;5.27;;
3347;SDS011;1687;49.540;8.574;2023-06-14T08:37:10;16.97;;;6.37;;
3347;SDS011;1687;49.540;8.574;2023-06-14T08:39:35;21.67;;;5.87;;
3347;SDS011;1687;49.540;8.574;2023-06-14T08:42:02;12.80;;;5.57;;
3347;SDS011;1687;49.540;8.574;2023-06-14T08:44:29;12.70;;;5.30;;
3347;SDS011;1687;49.540;8.574;2023-06-14T08:46:55;13.30;;;4.63;;
3347;SDS011;1687;49.540;8.574;2023-06-14T08:49:24;8.30;;;5.57;;
3347;SDS011;1687;49.540;8.574;2023-06-14T08:51:57;9.93;;;5.10;;
3347;SDS011;1687;49.540;8.574;2023-06-14T08:54:25;8.83;;;5.60;;
3347;SDS011;1687;49.540;8.574;2023-06-14T08:56:55;9.10;;;4.20;;
3347;SDS011;1687;49.540;8.574;2023-06-14T08:59:28;6.37;;;5.13;;
3347;SDS011;1687;49.540;8.574;2023-06-14T09:01:56;6.53;;;4.87;;
3347;SDS011;1687;49.540;8.574;2023-06-14T09:04:22;8.60;;;3.70;;
3347;SDS011;1687;49.540;8.574;2023-06-14T09:06:49;8.80;;;4.53;;
3347;SDS011;1687;49.540;8.574;2023-06-14T09:09:18;8.70;;;4.47;;
3347;SDS011;1687;49.540;8.574;2023-06-14T09:11:51;9.23;;;4.10;;
3347;SDS011;1687;49.540;8.574;2023-06-14T09:14:21;6.10;;;4.60;;
3347;SDS011;1687;49.540;8.574;2023-06-14T09:16:52;5.97;;;3.83;;
3347;SDS011;1687;49.540;8.574;2023-06-14T09:19:22;7.80;;;3.60;;
3347;SDS011;1687;49.540;8.574;2023-06-14T09:21:49;10.23;;;4.23;;
3347;SDS011;1687;49.540;8.574;2023-06-14T09:24:16;8.17;;;4.30;;
3347;SDS011;1687;49.540;8.574;2023-06-14T09:26:42;6.40;;;3.50;;
3347;SDS011;1687;49.540;8.574;2023-06-14T09:29:08;14.00;;;5.00;;
3347;SDS011;1687;49.540;8.574;2023-06-14T09:31:34;10.00;;;3.83;;
3347;SDS011;1687;49.540;8.574;2023-06-14T09:34:02;5.60;;;4.13;;
3347;SDS011;1687;49.540;8.574;2023-06-14T09:36:28;6.90;;;4.53;;
3347;SDS011;1687;49.540;8.574;2023-06-14T09:41:38;6.43;;;4.27;;
3347;SDS011;1687;49.540;8.574;2023-06-14T09:44:06;20.57;;;3.80;;
3347;SDS011;1687;49.540;8.574;2023-06-14T09:46:33;6.20;;;4.57;;
3347;SDS011;1687;49.540;8.574;2023-06-14T09:49:01;17.60;;;4.40;;
3347;SDS011;1687;49.540;8.574;2023-06-14T09:51:27;6.60;;;4.70;;
3347;SDS011;1687;49.540;8.574;2023-06-14T09:54:03;6.63;;;4.67;;
3347;SDS011;1687;49.540;8.574;2023-06-14T09:59:01;10.00;;;4.40;;
3347;SDS011;1687;49.540;8.574;2023-06-14T10:01:30;4.50;;;3.63;;
3347;SDS011;1687;49.540;8.574;2023-06-14T10:04:03;6.73;;;3.83;;
3347;SDS011;1687;49.540;8.574;2023-06-14T10:06:31;9.20;;;3.90;;
3347;SDS011;1687;49.540;8.574;2023-06-14T10:09:07;5.87;;;4.30;;
3347;SDS011;1687;49.540;8.574;2023-06-14T10:11:35;9.93;;;4.93;;
3347;SDS011;1687;49.540;8.574;2023-06-14T10:14:04;14.37;;;4.87;;
3347;SDS011;1687;49.540;8.574;2023-06-14T10:16:35;5.03;;;3.80;;
3347;SDS011;1687;49.540;8.574;2023-06-14T10:19:13;19.53;;;4.70;;
3347;SDS011;1687;49.540;8.574;2023-06-14T10:24:55;8.70;;;4.43;;
3347;SDS011;1687;49.540;8.574;2023-06-14T10:27:21;10.63;;;4.40;;
3347;SDS011;1687;49.540;8.574;2023-06-14T10:32:23;9.73;;;4.10;;
3347;SDS011;1687;49.540;8.574;2023-06-14T10:34:56;7.17;;;5.20;;
3347;SDS011;1687;49.540;8.574;2023-06-14T10:37:32;11.97;;;4.67;;
3347;SDS011;1687;49.540;8.574;2023-06-14T10:39:58;7.60;;;4.27;;
3347;SDS011;1687;49.540;8.574;2023-06-14T10:42:27;8.20;;;4.50;;
3347;SDS011;1687;49.540;8.574;2023-06-14T10:44:57;5.67;;;4.33;;
3347;SDS011;1687;49.540;8.574;2023-06-14T10:50:04;12.17;;;4.30;;
3347;SDS011;1687;49.540;8.574;2023-06-14T10:52:39;7.33;;;4.20;;
3347;SDS011;1687;49.540;8.574;2023-06-14T10:55:10;10.07;;;5.00;;
3347;SDS011;1687;49.540;8.574;2023-06-14T10:57:52;10.07;;;3.73;;
3347;SDS011;1687;49.540;8.574;2023-06-14T11:00:23;8.03;;;3.17;;
3347;SDS011;1687;49.540;8.574;2023-06-14T11:08:25;6.73;;;4.43;;
3347;SDS011;1687;49.540;8.574;2023-06-14T11:11:12;6.47;;;4.13;;
3347;SDS011;1687;49.540;8.574;2023-06-14T11:13:39;5.13;;;4.37;;
3347;SDS011;1687;49.540;8.574;2023-06-14T11:16:16;8.50;;;4.80;;
3347;SDS011;1687;49.540;8.574;2023-06-14T11:18:44;103.63;;;8.60;;
3347;SDS011;1687;49.540;8.574;2023-06-14T11:21:10;10.47;;;4.00;;
3347;SDS011;1687;49.540;8.574;2023-06-14T11:23:36;5.77;;;4.10;;
3347;SDS011;1687;49.540;8.574;2023-06-14T11:26:02;5.70;;;4.20;;
3347;SDS011;1687;49.540;8.574;2023-06-14T11:28:39;5.90;;;4.17;;
3347;SDS011;1687;49.540;8.574;2023-06-14T11:31:06;6.87;;;3.90;;
3347;SDS011;1687;49.540;8.574;2023-06-14T11:33:32;4.97;;;4.10;;
3347;SDS011;1687;49.540;8.574;2023-06-14T11:36:01;5.60;;;3.60;;
3347;SDS011;1687;49.540;8.574;2023-06-14T11:38:30;9.00;;;4.03;;
3347;SDS011;1687;49.540;8.574;2023-06-14T11:40:58;7.03;;;4.70;;
3347;SDS011;1687;49.540;8.574;2023-06-14T11:43:25;6.50;;;4.23;;
3347;SDS011;1687;49.540;8.574;2023-06-14T11:45:52;5.87;;;4.07;;
3347;SDS011;1687;49.540;8.574;2023-06-14T11:48:18;5.97;;;4.03;;
3347;SDS011;1687;49.540;8.574;2023-06-14T11:50:43;6.77;;;3.60;;
3347;SDS011;1687;49.540;8.574;2023-06-14T11:53:09;6.30;;;4.27;;
3347;SDS011;1687;49.540;8.574;2023-06-14T11:55:36;8.97;;;4.37;;
3347;SDS011;1687;49.540;8.574;2023-06-14T11:58:03;9.63;;;3.90;;
3347;SDS011;1687;49.540;8.574;2023-06-14T12:00:28;8.93;;;4.60;;
3347;SDS011;1687;49.540;8.574;2023-06-14T12:02:54;6.57;;;4.70;;
3347;SDS011;1687;49.540;8.574;2023-06-14T12:05:22;5.80;;;4.03;;
3347;SDS011;1687;49.540;8.574;2023-06-14T12:07:49;7.67;;;3.80;;
3347;SDS011;1687;49.540;8.574;2023-06-14T12:10:18;6.63;;;3.63;;
3347;SDS011;1687;49.540;8.574;2023-06-14T12:12:44;5.63;;;4.30;;
3347;SDS011;1687;49.540;8.574;2023-06-14T12:15:09;6.33;;;3.97;;
3347;SDS011;1687;49.540;8.574;2023-06-14T12:17:38;5.27;;;3.70;;
3347;SDS011;1687;49.540;8.574;2023-06-14T12:20:10;6.73;;;3.90;;
3347;SDS011;1687;49.540;8.574;2023-06-14T12:22:47;7.40;;;4.17;;
3347;SDS011;1687;49.540;8.574;2023-06-14T12:25:28;5.53;;;3.93;;
3347;SDS011;1687;49.540;8.574;2023-06-14T12:28:04;6.07;;;4.50;;
3347;SDS011;1687;49.540;8.574;2023-06-14T12:30:31;6.43;;;3.80;;
3347;SDS011;1687;49.540;8.574;2023-06-14T12:32:58;7.63;;;4.53;;
3347;SDS011;1687;49.540;8.574;2023-06-14T12:35:25;12.47;;;4.30;;
3347;SDS011;1687;49.540;8.574;2023-06-14T12:37:51;5.83;;;3.80;;
3347;SDS011;1687;49.540;8.574;2023-06-14T12:40:16;6.63;;;3.43;;
3347;SDS011;1687;49.540;8.574;2023-06-14T12:42:44;6.40;;;3.67;;
3347;SDS011;1687;49.540;8.574;2023-06-14T12:45:12;6.10;;;3.80;;
3347;SDS011;1687;49.540;8.574;2023-06-14T12:47:38;15.00;;;3.57;;
3347;SDS011;1687;49.540;8.574;2023-06-14T12:50:04;7.07;;;4.80;;
3347;SDS011;1687;49.540;8.574;2023-06-14T12:52:31;5.90;;;3.90;;
3347;SDS011;1687;49.540;8.574;2023-06-14T12:55:00;5.23;;;3.40;;
3347;SDS011;1687;49.540;8.574;2023-06-14T12:57:29;5.87;;;3.80;;
3347;SDS011;1687;49.540;8.574;2023-06-14T12:59:55;6.23;;;3.70;;
3347;SDS011;1687;49.540;8.574;2023-06-14T13:02:21;9.90;;;4.93;;
3347;SDS011;1687;49.540;8.574;2023-06-14T13:04:50;8.63;;;4.00;;
3347;SDS011;1687;49.540;8.574;2023-06-14T13:07:16;4.70;;;3.60;;
3347;SDS011;1687;49.540;8.574;2023-06-14T13:09:42;5.23;;;3.83;;
3347;SDS011;1687;49.540;8.574;2023-06-14T13:12:09;6.20;;;4.00;;
3347;SDS011;1687;49.540;8.574;2023-06-14T13:14:39;7.33;;;4.30;;
3347;SDS011;1687;49.540;8.574;2023-06-14T13:17:06;4.87;;;4.03;;
3347;SDS011;1687;49.540;8.574;2023-06-14T13:19:33;5.17;;;4.53;;
3347;SDS011;1687;49.540;8.574;2023-06-14T13:22:00;8.43;;;3.70;;
3347;SDS011;1687;49.540;8.574;2023-06-14T13:24:26;6.30;;;3.50;;
3347;SDS011;1687;49.540;8.574;2023-06-14T13:26:51;5.50;;;4.17;;
3347;SDS011;1687;49.540;8.574;2023-06-14T13:29:17;4.80;;;4.27;;
3347;SDS011;1687;49.540;8.574;2023-06-14T13:31:43;4.83;;;3.47;;
3347;SDS011;1687;49.540;8.574;2023-06-14T13:34:08;5.63;;;3.87;;
3347;SDS011;1687;49.540;8.574;2023-06-14T13:36:34;4.77;;;3.90;;
3347;SDS011;1687;49.540;8.574;2023-06-14T13:39:00;5.70;;;3.60;;
3347;SDS011;1687;49.540;8.574;2023-06-14T13:41:27;4.30;;;3.60;;
3347;SDS011;1687;49.540;8.574;2023-06-14T13:43:57;5.00;;;4.47;;
3347;SDS011;1687;49.540;8.574;2023-06-14T13:46:23;3.83;;;3.40;;
3347;SDS011;1687;49.540;8.574;2023-06-14T13:48:49;12.73;;;4.00;;
3347;SDS011;1687;49.540;8.574;2023-06-14T13:51:15;4.57;;;3.37;;
3347;SDS011;1687;49.540;8.574;2023-06-14T13:53:42;2.87;;;2.53;;
3347;SDS011;1687;49.540;8.574;2023-06-14T13:56:11;2.63;;;2.43;;
3347;SDS011;1687;49.540;8.574;2023-06-14T13:58:37;6.73;;;3.10;;
3347;SDS011;1687;49.540;8.574;2023-06-14T14:01:03;3.43;;;3.13;;
3347;SDS011;1687;49.540;8.574;2023-06-14T14:03:29;3.37;;;3.07;;
3347;SDS011;1687;49.540;8.574;2023-06-14T14:05:55;3.17;;;2.97;;
3347;SDS011;1687;49.540;8.574;2023-06-14T14:08:21;6.03;;;3.70;;
3347;SDS011;1687;49.540;8.574;2023-06-14T14:10:46;3.63;;;3.00;;
3347;SDS011;1687;49.540;8.574;2023-06-14T14:13:12;5.97;;;2.93;;
3347;SDS011;1687;49.540;8.574;2023-06-14T14:15:38;3.00;;;2.80;;
3347;SDS011;1687;49.540;8.574;2023-06-14T14:18:04;2.70;;;2.50;;
3347;SDS011;1687;49.540;8.574;2023-06-14T14:20:30;6.53;;;3.10;;
3347;SDS011;1687;49.540;8.574;2023-06-14T14:22:56;3.03;;;2.83;;
3347;SDS011;1687;49.540;8.574;2023-06-14T14:25:22;2.80;;;2.60;;
3347;SDS011;1687;49.540;8.574;2023-06-14T14:27:47;2.33;;;2.23;;
3347;SDS011;1687;49.540;8.574;2023-06-14T14:30:13;2.43;;;2.30;;
3347;SDS011;1687;49.540;8.574;2023-06-14T14:32:41;2.53;;;2.30;;
3347;SDS011;1687;49.540;8.574;2023-06-14T14:35:08;3.33;;;2.87;;
3347;SDS011;1687;49.540;8.574;2023-06-14T14:37:34;3.97;;;3.17;;
3347;SDS011;1687;49.540;8.574;2023-06-14T14:40:00;6.47;;;3.57;;
3347;SDS011;1687;49.540;8.574;2023-06-14T14:42:25;3.47;;;2.90;;
3347;SDS011;1687;49.540;8.574;2023-06-14T14:44:51;4.80;;;3.20;;
3347;SDS011;1687;49.540;8.574;2023-06-14T14:47:17;5.23;;;3.70;;
3347;SDS011;1687;49.540;8.574;2023-06-14T14:49:43;4.57;;;3.13;;
3347;SDS011;1687;49.540;8.574;2023-06-14T14:52:08;2.60;;;2.40;;
3347;SDS011;1687;49.540;8.574;2023-06-14T14:54:34;3.20;;;2.90;;
3347;SDS011;1687;49.540;8.574;2023-06-14T14:57:00;3.87;;;2.87;;
3347;SDS011;1687;49.540;8.574;2023-06-14T14:59:27;3.03;;;2.83;;
3347;SDS011;1687;49.540;8.574;2023-06-14T15:01:52;7.30;;;3.00;;
3347;SDS011;1687;49.540;8.574;2023-06-14T15:04:18;4.37;;;3.00;;
3347;SDS011;1687;49.540;8.574;2023-06-14T15:06:44;3.87;;;3.53;;
3347;SDS011;1687;49.540;8.574;2023-06-14T15:09:10;3.90;;;3.20;;
3347;SDS011;1687;49.540;8.574;2023-06-14T15:11:35;3.80;;;2.77;;
3347;SDS011;1687;49.540;8.574;2023-06-14T15:14:01;5.20;;;2.87;;
3347;SDS011;1687;49.540;8.574;2023-06-14T15:16:27;3.40;;;2.87;;
3347;SDS011;1687;49.540;8.574;2023-06-14T15:18:52;2.20;;;2.10;;
3347;SDS011;1687;49.540;8.574;2023-06-14T15:21:18;2.47;;;2.37;;
3347;SDS011;1687;49.540;8.574;2023-06-14T15:23:45;3.50;;;2.38;;
3347;SDS011;1687;49.540;8.574;2023-06-14T15:26:11;5.57;;;2.30;;
3347;SDS011;1687;49.540;8.574;2023-06-14T15:28:36;2.72;;;2.00;;